Delburne, Canada
Current Conditions -  °F | °C
As of 1:00 AM on Saturday 29 Nov 2014 (Local Time) from CYQF Reporting Station
Blowing Snow Blowing Snow  
Wind Chill: -39°   Ceiling: 10000
Heat Index: -13°   Visibility: 3mi
Dew Point: -20°   Wind: 21mph
Humidity: 70%   Direction: 330°NNW
Pressure: 29.78"   Gusts: 28mph
Location:  52.2°N, 113.23°W
Report Text: CYQF 290800Z 33018G24KT 3SM BLSN FEW030 OVC100 M25/M29 A2978 RMK SC1AC7 SLP177
Loading
Personal Weather Stations






























Interactive Weather Map New forecast layout! Learn more

10-Day Weather Forecast

Advertisements
Track Severe Weather on mobile